sensor_id;sensor_type;location;lat;lon;timestamp;P1;durP1;ratioP1;P2;durP2;ratioP2
55362;SDS011;41244;49.242;9.060;2023-08-01T00:00:49;7.78;;;5.45;;
55362;SDS011;41244;49.242;9.060;2023-08-01T00:03:15;7.90;;;5.38;;
55362;SDS011;41244;49.242;9.060;2023-08-01T00:05:41;9.32;;;5.57;;
55362;SDS011;41244;49.242;9.060;2023-08-01T00:08:10;7.20;;;5.05;;
55362;SDS011;41244;49.242;9.060;2023-08-01T00:10:42;7.32;;;5.38;;
55362;SDS011;41244;49.242;9.060;2023-08-01T00:13:08;8.20;;;5.10;;
55362;SDS011;41244;49.242;9.060;2023-08-01T00:15:36;9.20;;;5.68;;
55362;SDS011;41244;49.242;9.060;2023-08-01T00:18:01;8.13;;;5.47;;
55362;SDS011;41244;49.242;9.060;2023-08-01T00:20:27;9.77;;;5.45;;
55362;SDS011;41244;49.242;9.060;2023-08-01T00:22:53;9.05;;;5.60;;
55362;SDS011;41244;49.242;9.060;2023-08-01T00:25:19;9.68;;;5.85;;
55362;SDS011;41244;49.242;9.060;2023-08-01T00:27:45;9.27;;;5.75;;
55362;SDS011;41244;49.242;9.060;2023-08-01T00:30:10;8.77;;;5.57;;
55362;SDS011;41244;49.242;9.060;2023-08-01T00:32:37;10.18;;;5.63;;
55362;SDS011;41244;49.242;9.060;2023-08-01T00:35:03;8.27;;;5.00;;
55362;SDS011;41244;49.242;9.060;2023-08-01T00:37:29;8.32;;;5.03;;
55362;SDS011;41244;49.242;9.060;2023-08-01T00:39:55;7.93;;;5.45;;
55362;SDS011;41244;49.242;9.060;2023-08-01T00:42:21;7.85;;;5.75;;
55362;SDS011;41244;49.242;9.060;2023-08-01T00:44:47;8.52;;;5.68;;
55362;SDS011;41244;49.242;9.060;2023-08-01T00:47:14;7.95;;;5.00;;
55362;SDS011;41244;49.242;9.060;2023-08-01T00:49:40;9.32;;;5.30;;
55362;SDS011;41244;49.242;9.060;2023-08-01T00:52:06;9.52;;;4.88;;
55362;SDS011;41244;49.242;9.060;2023-08-01T00:54:33;8.38;;;5.07;;
55362;SDS011;41244;49.242;9.060;2023-08-01T00:57:02;10.75;;;5.90;;
55362;SDS011;41244;49.242;9.060;2023-08-01T00:59:28;10.18;;;5.65;;
55362;SDS011;41244;49.242;9.060;2023-08-01T01:01:54;7.30;;;5.43;;
55362;SDS011;41244;49.242;9.060;2023-08-01T01:04:20;8.93;;;5.35;;
55362;SDS011;41244;49.242;9.060;2023-08-01T01:06:55;8.98;;;5.65;;
55362;SDS011;41244;49.242;9.060;2023-08-01T01:09:28;7.75;;;4.93;;
55362;SDS011;41244;49.242;9.060;2023-08-01T01:11:56;11.30;;;5.20;;
55362;SDS011;41244;49.242;9.060;2023-08-01T01:14:23;10.52;;;5.10;;
55362;SDS011;41244;49.242;9.060;2023-08-01T01:16:53;9.73;;;5.40;;
55362;SDS011;41244;49.242;9.060;2023-08-01T01:19:19;7.43;;;5.30;;
55362;SDS011;41244;49.242;9.060;2023-08-01T01:21:44;8.85;;;5.45;;
55362;SDS011;41244;49.242;9.060;2023-08-01T01:24:11;9.77;;;6.15;;
55362;SDS011;41244;49.242;9.060;2023-08-01T01:26:38;6.82;;;5.55;;
55362;SDS011;41244;49.242;9.060;2023-08-01T01:29:06;12.30;;;6.07;;
55362;SDS011;41244;49.242;9.060;2023-08-01T01:31:33;8.45;;;5.40;;
55362;SDS011;41244;49.242;9.060;2023-08-01T01:33:59;7.22;;;5.38;;
55362;SDS011;41244;49.242;9.060;2023-08-01T01:36:25;7.40;;;5.32;;
55362;SDS011;41244;49.242;9.060;2023-08-01T01:38:51;8.40;;;5.15;;
55362;SDS011;41244;49.242;9.060;2023-08-01T01:41:16;7.68;;;5.30;;
55362;SDS011;41244;49.242;9.060;2023-08-01T01:43:42;9.40;;;6.18;;
55362;SDS011;41244;49.242;9.060;2023-08-01T01:46:09;8.60;;;5.38;;
55362;SDS011;41244;49.242;9.060;2023-08-01T01:48:35;7.72;;;5.65;;
55362;SDS011;41244;49.242;9.060;2023-08-01T01:51:01;8.05;;;5.57;;
55362;SDS011;41244;49.242;9.060;2023-08-01T01:53:26;8.07;;;5.45;;
55362;SDS011;41244;49.242;9.060;2023-08-01T01:55:52;8.65;;;5.35;;
55362;SDS011;41244;49.242;9.060;2023-08-01T01:58:18;8.10;;;5.60;;
55362;SDS011;41244;49.242;9.060;2023-08-01T02:00:44;9.68;;;6.13;;
55362;SDS011;41244;49.242;9.060;2023-08-01T02:03:10;9.02;;;5.85;;
55362;SDS011;41244;49.242;9.060;2023-08-01T02:05:37;6.90;;;5.20;;
55362;SDS011;41244;49.242;9.060;2023-08-01T02:08:06;8.27;;;5.78;;
55362;SDS011;41244;49.242;9.060;2023-08-01T02:10:31;8.25;;;5.30;;
55362;SDS011;41244;49.242;9.060;2023-08-01T02:12:58;8.55;;;5.45;;
55362;SDS011;41244;49.242;9.060;2023-08-01T02:15:24;7.72;;;5.22;;
55362;SDS011;41244;49.242;9.060;2023-08-01T02:17:49;10.00;;;5.30;;
55362;SDS011;41244;49.242;9.060;2023-08-01T02:20:15;8.77;;;5.88;;
55362;SDS011;41244;49.242;9.060;2023-08-01T02:22:41;12.93;;;6.05;;
55362;SDS011;41244;49.242;9.060;2023-08-01T02:25:07;10.25;;;5.85;;
55362;SDS011;41244;49.242;9.060;2023-08-01T02:27:33;10.07;;;5.93;;
55362;SDS011;41244;49.242;9.060;2023-08-01T02:29:59;7.85;;;5.40;;
55362;SDS011;41244;49.242;9.060;2023-08-01T02:32:24;9.35;;;5.72;;
55362;SDS011;41244;49.242;9.060;2023-08-01T02:34:50;10.02;;;5.90;;
55362;SDS011;41244;49.242;9.060;2023-08-01T02:37:16;8.18;;;5.78;;
55362;SDS011;41244;49.242;9.060;2023-08-01T02:39:42;9.05;;;5.28;;
55362;SDS011;41244;49.242;9.060;2023-08-01T02:42:07;10.10;;;5.85;;
55362;SDS011;41244;49.242;9.060;2023-08-01T02:44:33;9.50;;;5.57;;
55362;SDS011;41244;49.242;9.060;2023-08-01T02:46:59;9.48;;;5.60;;
55362;SDS011;41244;49.242;9.060;2023-08-01T02:49:25;7.20;;;5.50;;
55362;SDS011;41244;49.242;9.060;2023-08-01T02:51:51;7.18;;;5.22;;
55362;SDS011;41244;49.242;9.060;2023-08-01T02:54:16;7.95;;;6.07;;
55362;SDS011;41244;49.242;9.060;2023-08-01T02:56:42;9.05;;;6.13;;
55362;SDS011;41244;49.242;9.060;2023-08-01T02:59:08;9.38;;;5.55;;
55362;SDS011;41244;49.242;9.060;2023-08-01T03:01:37;10.48;;;5.47;;
55362;SDS011;41244;49.242;9.060;2023-08-01T03:04:04;9.95;;;5.60;;
55362;SDS011;41244;49.242;9.060;2023-08-01T03:06:32;10.75;;;6.28;;
55362;SDS011;41244;49.242;9.060;2023-08-01T03:08:58;8.77;;;5.53;;
55362;SDS011;41244;49.242;9.060;2023-08-01T03:11:24;10.18;;;6.65;;
55362;SDS011;41244;49.242;9.060;2023-08-01T03:13:51;5.80;;;4.95;;
55362;SDS011;41244;49.242;9.060;2023-08-01T03:16:17;9.77;;;5.60;;
55362;SDS011;41244;49.242;9.060;2023-08-01T03:18:43;8.15;;;5.65;;
55362;SDS011;41244;49.242;9.060;2023-08-01T03:21:09;10.30;;;5.47;;
55362;SDS011;41244;49.242;9.060;2023-08-01T03:23:35;8.55;;;5.47;;
55362;SDS011;41244;49.242;9.060;2023-08-01T03:26:01;12.35;;;5.80;;
55362;SDS011;41244;49.242;9.060;2023-08-01T03:28:27;10.13;;;6.10;;
55362;SDS011;41244;49.242;9.060;2023-08-01T03:30:53;6.75;;;5.43;;
55362;SDS011;41244;49.242;9.060;2023-08-01T03:33:19;11.65;;;5.65;;
55362;SDS011;41244;49.242;9.060;2023-08-01T03:35:45;8.25;;;6.32;;
55362;SDS011;41244;49.242;9.060;2023-08-01T03:38:11;8.85;;;5.80;;
55362;SDS011;41244;49.242;9.060;2023-08-01T03:40:37;7.47;;;5.80;;
55362;SDS011;41244;49.242;9.060;2023-08-01T03:43:03;9.52;;;5.82;;
55362;SDS011;41244;49.242;9.060;2023-08-01T03:45:30;8.25;;;5.50;;
55362;SDS011;41244;49.242;9.060;2023-08-01T03:47:55;10.30;;;6.18;;
55362;SDS011;41244;49.242;9.060;2023-08-01T03:50:21;8.75;;;6.28;;
55362;SDS011;41244;49.242;9.060;2023-08-01T03:52:47;12.55;;;6.43;;
55362;SDS011;41244;49.242;9.060;2023-08-01T03:55:13;12.80;;;8.05;;
55362;SDS011;41244;49.242;9.060;2023-08-01T03:57:39;10.20;;;5.50;;
55362;SDS011;41244;49.242;9.060;2023-08-01T04:00:07;9.27;;;6.07;;
55362;SDS011;41244;49.242;9.060;2023-08-01T04:02:43;11.07;;;6.10;;
55362;SDS011;41244;49.242;9.060;2023-08-01T04:05:09;7.47;;;5.90;;
55362;SDS011;41244;49.242;9.060;2023-08-01T04:07:36;8.90;;;6.00;;
55362;SDS011;41244;49.242;9.060;2023-08-01T04:10:03;8.98;;;5.88;;
55362;SDS011;41244;49.242;9.060;2023-08-01T04:12:32;9.80;;;6.20;;
55362;SDS011;41244;49.242;9.060;2023-08-01T04:14:59;6.93;;;5.55;;
55362;SDS011;41244;49.242;9.060;2023-08-01T04:17:25;9.68;;;5.80;;
55362;SDS011;41244;49.242;9.060;2023-08-01T04:19:51;12.38;;;6.50;;
55362;SDS011;41244;49.242;9.060;2023-08-01T04:22:18;7.45;;;5.80;;
55362;SDS011;41244;49.242;9.060;2023-08-01T04:24:43;8.48;;;5.93;;
55362;SDS011;41244;49.242;9.060;2023-08-01T04:27:09;8.70;;;5.95;;
55362;SDS011;41244;49.242;9.060;2023-08-01T04:29:35;10.57;;;6.80;;
55362;SDS011;41244;49.242;9.060;2023-08-01T04:32:01;11.13;;;6.40;;
55362;SDS011;41244;49.242;9.060;2023-08-01T04:34:27;8.80;;;5.90;;
55362;SDS011;41244;49.242;9.060;2023-08-01T04:36:52;8.90;;;6.15;;
55362;SDS011;41244;49.242;9.060;2023-08-01T04:39:18;9.68;;;5.90;;
55362;SDS011;41244;49.242;9.060;2023-08-01T04:41:44;12.65;;;6.68;;
55362;SDS011;41244;49.242;9.060;2023-08-01T04:44:09;12.88;;;6.40;;
55362;SDS011;41244;49.242;9.060;2023-08-01T04:46:35;10.63;;;6.63;;
55362;SDS011;41244;49.242;9.060;2023-08-01T04:49:01;10.25;;;6.22;;
55362;SDS011;41244;49.242;9.060;2023-08-01T04:51:27;7.90;;;5.72;;
55362;SDS011;41244;49.242;9.060;2023-08-01T04:53:52;11.18;;;6.53;;
55362;SDS011;41244;49.242;9.060;2023-08-01T04:56:18;11.35;;;6.32;;
55362;SDS011;41244;49.242;9.060;2023-08-01T04:58:44;9.25;;;5.88;;
55362;SDS011;41244;49.242;9.060;2023-08-01T05:01:10;11.23;;;6.13;;
55362;SDS011;41244;49.242;9.060;2023-08-01T05:03:35;10.57;;;6.20;;
55362;SDS011;41244;49.242;9.060;2023-08-01T05:06:01;15.20;;;6.18;;
55362;SDS011;41244;49.242;9.060;2023-08-01T05:08:27;9.90;;;6.03;;
55362;SDS011;41244;49.242;9.060;2023-08-01T05:10:52;9.60;;;6.30;;
55362;SDS011;41244;49.242;9.060;2023-08-01T05:13:18;8.00;;;5.70;;
55362;SDS011;41244;49.242;9.060;2023-08-01T05:15:44;7.32;;;5.90;;
55362;SDS011;41244;49.242;9.060;2023-08-01T05:18:14;8.05;;;6.13;;
55362;SDS011;41244;49.242;9.060;2023-08-01T05:20:41;12.73;;;6.05;;
55362;SDS011;41244;49.242;9.060;2023-08-01T05:23:07;9.52;;;5.80;;
55362;SDS011;41244;49.242;9.060;2023-08-01T05:25:33;10.07;;;6.15;;
55362;SDS011;41244;49.242;9.060;2023-08-01T05:27:59;8.15;;;6.60;;
55362;SDS011;41244;49.242;9.060;2023-08-01T05:30:24;7.93;;;5.65;;
55362;SDS011;41244;49.242;9.060;2023-08-01T05:32:50;12.80;;;7.03;;
55362;SDS011;41244;49.242;9.060;2023-08-01T05:35:16;8.95;;;6.45;;
55362;SDS011;41244;49.242;9.060;2023-08-01T05:37:42;13.80;;;5.60;;
55362;SDS011;41244;49.242;9.060;2023-08-01T05:40:09;9.45;;;5.68;;
55362;SDS011;41244;49.242;9.060;2023-08-01T05:42:35;13.43;;;6.75;;
55362;SDS011;41244;49.242;9.060;2023-08-01T05:45:01;10.63;;;6.40;;
55362;SDS011;41244;49.242;9.060;2023-08-01T05:47:27;11.35;;;6.18;;
55362;SDS011;41244;49.242;9.060;2023-08-01T05:49:52;8.88;;;5.60;;
55362;SDS011;41244;49.242;9.060;2023-08-01T05:52:18;7.25;;;5.45;;
55362;SDS011;41244;49.242;9.060;2023-08-01T05:54:44;10.20;;;5.80;;
55362;SDS011;41244;49.242;9.060;2023-08-01T05:57:09;10.27;;;7.00;;
55362;SDS011;41244;49.242;9.060;2023-08-01T05:59:36;8.48;;;6.22;;
55362;SDS011;41244;49.242;9.060;2023-08-01T06:02:02;9.88;;;6.32;;
55362;SDS011;41244;49.242;9.060;2023-08-01T06:04:28;12.23;;;6.28;;
55362;SDS011;41244;49.242;9.060;2023-08-01T06:06:53;9.93;;;5.65;;
55362;SDS011;41244;49.242;9.060;2023-08-01T06:09:19;9.90;;;5.32;;
55362;SDS011;41244;49.242;9.060;2023-08-01T06:11:45;15.15;;;6.22;;
55362;SDS011;41244;49.242;9.060;2023-08-01T06:14:11;10.13;;;5.65;;
55362;SDS011;41244;49.242;9.060;2023-08-01T06:16:37;9.75;;;5.82;;
55362;SDS011;41244;49.242;9.060;2023-08-01T06:19:02;9.02;;;5.80;;
55362;SDS011;41244;49.242;9.060;2023-08-01T06:21:29;8.45;;;5.43;;
55362;SDS011;41244;49.242;9.060;2023-08-01T06:23:54;9.48;;;6.55;;
55362;SDS011;41244;49.242;9.060;2023-08-01T06:26:20;8.85;;;5.47;;
55362;SDS011;41244;49.242;9.060;2023-08-01T06:28:46;10.02;;;5.80;;
55362;SDS011;41244;49.242;9.060;2023-08-01T06:31:11;8.10;;;5.43;;
55362;SDS011;41244;49.242;9.060;2023-08-01T06:33:37;14.13;;;6.20;;
55362;SDS011;41244;49.242;9.060;2023-08-01T06:36:03;14.63;;;8.93;;
55362;SDS011;41244;49.242;9.060;2023-08-01T06:38:30;8.77;;;5.47;;
55362;SDS011;41244;49.242;9.060;2023-08-01T06:40:56;14.35;;;6.68;;
55362;SDS011;41244;49.242;9.060;2023-08-01T06:43:21;8.88;;;6.13;;
55362;SDS011;41244;49.242;9.060;2023-08-01T06:45:49;9.18;;;5.50;;
55362;SDS011;41244;49.242;9.060;2023-08-01T06:48:15;9.55;;;6.70;;
55362;SDS011;41244;49.242;9.060;2023-08-01T06:50:41;11.57;;;6.38;;
55362;SDS011;41244;49.242;9.060;2023-08-01T06:53:06;8.63;;;6.07;;
55362;SDS011;41244;49.242;9.060;2023-08-01T06:55:33;10.25;;;6.30;;
55362;SDS011;41244;49.242;9.060;2023-08-01T06:57:59;11.05;;;6.75;;
55362;SDS011;41244;49.242;9.060;2023-08-01T07:00:25;7.97;;;5.82;;
55362;SDS011;41244;49.242;9.060;2023-08-01T07:02:50;9.45;;;5.70;;
55362;SDS011;41244;49.242;9.060;2023-08-01T07:05:16;11.05;;;5.85;;
55362;SDS011;41244;49.242;9.060;2023-08-01T07:07:42;9.18;;;6.40;;
55362;SDS011;41244;49.242;9.060;2023-08-01T07:10:08;7.95;;;5.53;;
55362;SDS011;41244;49.242;9.060;2023-08-01T07:12:34;7.85;;;5.78;;
55362;SDS011;41244;49.242;9.060;2023-08-01T07:15:00;10.40;;;5.78;;
55362;SDS011;41244;49.242;9.060;2023-08-01T07:17:26;9.52;;;5.40;;
55362;SDS011;41244;49.242;9.060;2023-08-01T07:19:52;7.05;;;5.43;;
55362;SDS011;41244;49.242;9.060;2023-08-01T07:22:19;8.70;;;5.40;;
55362;SDS011;41244;49.242;9.060;2023-08-01T07:24:45;8.75;;;5.60;;
55362;SDS011;41244;49.242;9.060;2023-08-01T07:27:11;10.13;;;6.45;;
55362;SDS011;41244;49.242;9.060;2023-08-01T07:29:37;10.52;;;5.95;;
55362;SDS011;41244;49.242;9.060;2023-08-01T07:32:03;9.95;;;5.90;;
55362;SDS011;41244;49.242;9.060;2023-08-01T07:34:29;8.05;;;5.85;;
55362;SDS011;41244;49.242;9.060;2023-08-01T07:36:56;8.43;;;6.15;;
55362;SDS011;41244;49.242;9.060;2023-08-01T07:39:22;8.35;;;5.88;;
55362;SDS011;41244;49.242;9.060;2023-08-01T07:41:48;7.93;;;5.60;;
55362;SDS011;41244;49.242;9.060;2023-08-01T07:44:13;7.97;;;5.57;;
55362;SDS011;41244;49.242;9.060;2023-08-01T07:46:39;9.23;;;5.97;;
55362;SDS011;41244;49.242;9.060;2023-08-01T07:49:05;9.13;;;6.55;;
55362;SDS011;41244;49.242;9.060;2023-08-01T07:51:31;7.13;;;5.78;;
55362;SDS011;41244;49.242;9.060;2023-08-01T07:53:58;8.05;;;5.70;;
55362;SDS011;41244;49.242;9.060;2023-08-01T07:56:24;7.55;;;6.10;;
55362;SDS011;41244;49.242;9.060;2023-08-01T07:58:50;11.55;;;7.95;;
55362;SDS011;41244;49.242;9.060;2023-08-01T08:01:16;13.68;;;7.57;;
55362;SDS011;41244;49.242;9.060;2023-08-01T08:03:41;8.82;;;5.93;;
55362;SDS011;41244;49.242;9.060;2023-08-01T08:06:07;15.68;;;11.73;;
55362;SDS011;41244;49.242;9.060;2023-08-01T08:08:33;9.98;;;5.95;;
55362;SDS011;41244;49.242;9.060;2023-08-01T08:10:59;7.25;;;5.22;;
55362;SDS011;41244;49.242;9.060;2023-08-01T08:13:26;7.10;;;5.20;;
55362;SDS011;41244;49.242;9.060;2023-08-01T08:15:54;6.70;;;5.30;;
55362;SDS011;41244;49.242;9.060;2023-08-01T08:18:22;9.38;;;6.82;;
55362;SDS011;41244;49.242;9.060;2023-08-01T08:20:48;7.97;;;5.70;;
55362;SDS011;41244;49.242;9.060;2023-08-01T08:23:13;11.13;;;5.20;;
55362;SDS011;41244;49.242;9.060;2023-08-01T08:25:39;8.80;;;5.00;;
55362;SDS011;41244;49.242;9.060;2023-08-01T08:28:06;6.00;;;4.90;;
55362;SDS011;41244;49.242;9.060;2023-08-01T08:30:32;5.72;;;4.75;;
55362;SDS011;41244;49.242;9.060;2023-08-01T08:32:59;8.52;;;4.68;;
55362;SDS011;41244;49.242;9.060;2023-08-01T08:35:29;4.95;;;4.18;;
55362;SDS011;41244;49.242;9.060;2023-08-01T08:37:55;6.32;;;4.47;;
55362;SDS011;41244;49.242;9.060;2023-08-01T08:40:23;7.45;;;4.20;;
55362;SDS011;41244;49.242;9.060;2023-08-01T08:42:49;5.40;;;4.30;;
55362;SDS011;41244;49.242;9.060;2023-08-01T08:52:53;5.20;;;3.65;;
55362;SDS011;41244;49.242;9.060;2023-08-01T08:55:19;4.88;;;3.78;;
55362;SDS011;41244;49.242;9.060;2023-08-01T08:57:48;4.68;;;3.40;;
55362;SDS011;41244;49.242;9.060;2023-08-01T09:03:58;3.92;;;3.33;;
55362;SDS011;41244;49.242;9.060;2023-08-01T09:06:24;6.75;;;4.18;;
55362;SDS011;41244;49.242;9.060;2023-08-01T09:17:54;4.10;;;3.00;;
55362;SDS011;41244;49.242;9.060;2023-08-01T09:23:33;3.60;;;2.80;;
55362;SDS011;41244;49.242;9.060;2023-08-01T09:25:58;3.03;;;2.78;;
55362;SDS011;41244;49.242;9.060;2023-08-01T09:28:24;3.35;;;3.05;;
55362;SDS011;41244;49.242;9.060;2023-08-01T09:30:52;2.95;;;2.50;;
55362;SDS011;41244;49.242;9.060;2023-08-01T09:33:20;3.40;;;2.45;;
55362;SDS011;41244;49.242;9.060;2023-08-01T09:35:48;4.53;;;2.65;;
55362;SDS011;41244;49.242;9.060;2023-08-01T09:38:15;3.08;;;2.50;;
55362;SDS011;41244;49.242;9.060;2023-08-01T09:40:42;2.65;;;2.45;;
55362;SDS011;41244;49.242;9.060;2023-08-01T09:43:10;2.92;;;2.70;;
55362;SDS011;41244;49.242;9.060;2023-08-01T09:45:37;3.50;;;2.60;;
55362;SDS011;41244;49.242;9.060;2023-08-01T09:48:03;2.60;;;2.40;;
55362;SDS011;41244;49.242;9.060;2023-08-01T09:50:29;3.10;;;2.22;;
55362;SDS011;41244;49.242;9.060;2023-08-01T09:52:54;2.80;;;2.42;;
55362;SDS011;41244;49.242;9.060;2023-08-01T09:55:54;2.78;;;2.58;;
55362;SDS011;41244;49.242;9.060;2023-08-01T09:58:13;2.30;;;2.10;;
55362;SDS011;41244;49.242;9.060;2023-08-01T10:00:39;2.45;;;2.25;;
55362;SDS011;41244;49.242;9.060;2023-08-01T10:03:05;3.58;;;2.13;;
55362;SDS011;41244;49.242;9.060;2023-08-01T10:05:32;2.08;;;1.98;;
55362;SDS011;41244;49.242;9.060;2023-08-01T10:07:59;2.40;;;2.20;;
55362;SDS011;41244;49.242;9.060;2023-08-01T10:10:26;2.40;;;2.20;;
55362;SDS011;41244;49.242;9.060;2023-08-01T10:12:53;3.22;;;2.20;;
55362;SDS011;41244;49.242;9.060;2023-08-01T10:15:25;4.28;;;2.20;;
55362;SDS011;41244;49.242;9.060;2023-08-01T10:17:54;2.33;;;2.13;;
55362;SDS011;41244;49.242;9.060;2023-08-01T10:20:20;2.15;;;2.03;;
55362;SDS011;41244;49.242;9.060;2023-08-01T10:22:47;2.10;;;2.00;;
55362;SDS011;41244;49.242;9.060;2023-08-01T10:25:15;2.50;;;2.30;;
55362;SDS011;41244;49.242;9.060;2023-08-01T10:27:41;2.13;;;2.00;;
55362;SDS011;41244;49.242;9.060;2023-08-01T10:30:07;2.92;;;2.00;;
55362;SDS011;41244;49.242;9.060;2023-08-01T10:32:35;2.03;;;1.90;;
55362;SDS011;41244;49.242;9.060;2023-08-01T10:35:03;3.17;;;1.98;;
55362;SDS011;41244;49.242;9.060;2023-08-01T10:37:40;3.03;;;2.38;;
55362;SDS011;41244;49.242;9.060;2023-08-01T10:40:07;4.38;;;3.45;;
55362;SDS011;41244;49.242;9.060;2023-08-01T10:42:40;3.45;;;2.22;;
55362;SDS011;41244;49.242;9.060;2023-08-01T10:45:16;2.40;;;2.10;;
55362;SDS011;41244;49.242;9.060;2023-08-01T10:47:47;2.13;;;2.03;;
55362;SDS011;41244;49.242;9.060;2023-08-01T10:50:15;2.58;;;1.88;;
55362;SDS011;41244;49.242;9.060;2023-08-01T10:52:41;1.80;;;1.70;;
55362;SDS011;41244;49.242;9.060;2023-08-01T10:55:07;2.58;;;2.00;;
55362;SDS011;41244;49.242;9.060;2023-08-01T10:57:34;2.55;;;2.15;;
55362;SDS011;41244;49.242;9.060;2023-08-01T11:00:03;2.40;;;2.20;;
55362;SDS011;41244;49.242;9.060;2023-08-01T11:02:34;2.08;;;1.90;;
55362;SDS011;41244;49.242;9.060;2023-08-01T11:05:01;2.28;;;2.08;;
55362;SDS011;41244;49.242;9.060;2023-08-01T11:07:29;2.50;;;2.30;;
55362;SDS011;41244;49.242;9.060;2023-08-01T11:12:41;3.58;;;2.22;;
55362;SDS011;41244;49.242;9.060;2023-08-01T11:15:09;3.63;;;2.15;;
55362;SDS011;41244;49.242;9.060;2023-08-01T11:17:40;2.38;;;2.03;;
55362;SDS011;41244;49.242;9.060;2023-08-01T11:20:08;2.25;;;2.10;;
55362;SDS011;41244;49.242;9.060;2023-08-01T11:22:49;3.05;;;2.10;;
55362;SDS011;41244;49.242;9.060;2023-08-01T11:25:36;3.67;;;2.22;;
55362;SDS011;41244;49.242;9.060;2023-08-01T11:28:22;2.03;;;1.83;;
55362;SDS011;41244;49.242;9.060;2023-08-01T11:30:49;4.25;;;2.25;;
55362;SDS011;41244;49.242;9.060;2023-08-01T11:35:45;4.05;;;2.10;;
55362;SDS011;41244;49.242;9.060;2023-08-01T11:38:16;2.40;;;2.20;;
55362;SDS011;41244;49.242;9.060;2023-08-01T11:40:41;4.20;;;2.50;;
55362;SDS011;41244;49.242;9.060;2023-08-01T11:43:07;3.50;;;2.30;;
55362;SDS011;41244;49.242;9.060;2023-08-01T11:45:33;3.88;;;2.40;;
55362;SDS011;41244;49.242;9.060;2023-08-01T11:47:59;2.53;;;2.33;;
55362;SDS011;41244;49.242;9.060;2023-08-01T11:50:25;2.95;;;2.38;;
55362;SDS011;41244;49.242;9.060;2023-08-01T11:52:51;2.65;;;2.45;;
55362;SDS011;41244;49.242;9.060;2023-08-01T11:55:18;3.20;;;2.42;;
55362;SDS011;41244;49.242;9.060;2023-08-01T11:57:56;3.83;;;2.67;;
55362;SDS011;41244;49.242;9.060;2023-08-01T12:00:27;2.90;;;2.55;;
55362;SDS011;41244;49.242;9.060;2023-08-01T12:03:03;3.65;;;2.40;;
55362;SDS011;41244;49.242;9.060;2023-08-01T12:05:40;3.63;;;2.55;;
55362;SDS011;41244;49.242;9.060;2023-08-01T12:08:13;4.70;;;3.55;;
55362;SDS011;41244;49.242;9.060;2023-08-01T12:10:40;3.28;;;2.58;;
55362;SDS011;41244;49.242;9.060;2023-08-01T12:13:23;3.20;;;2.72;;
55362;SDS011;41244;49.242;9.060;2023-08-01T12:15:51;8.10;;;3.00;;
55362;SDS011;41244;49.242;9.060;2023-08-01T12:20:48;3.60;;;2.60;;
55362;SDS011;41244;49.242;9.060;2023-08-01T12:23:14;3.13;;;2.78;;
55362;SDS011;41244;49.242;9.060;2023-08-01T12:25:39;4.35;;;2.88;;
55362;SDS011;41244;49.242;9.060;2023-08-01T12:28:05;4.38;;;3.95;;
55362;SDS011;41244;49.242;9.060;2023-08-01T12:30:31;3.90;;;2.60;;
55362;SDS011;41244;49.242;9.060;2023-08-01T12:32:56;4.82;;;2.70;;
55362;SDS011;41244;49.242;9.060;2023-08-01T12:35:22;4.13;;;2.67;;
55362;SDS011;41244;49.242;9.060;2023-08-01T12:37:48;2.83;;;2.50;;
55362;SDS011;41244;49.242;9.060;2023-08-01T12:40:15;2.83;;;2.60;;
55362;SDS011;41244;49.242;9.060;2023-08-01T12:42:41;3.50;;;2.83;;
55362;SDS011;41244;49.242;9.060;2023-08-01T12:45:07;4.00;;;2.90;;
55362;SDS011;41244;49.242;9.060;2023-08-01T12:47:33;3.58;;;2.80;;
55362;SDS011;41244;49.242;9.060;2023-08-01T12:49:59;4.97;;;2.78;;
55362;SDS011;41244;49.242;9.060;2023-08-01T12:52:25;4.30;;;2.92;;
55362;SDS011;41244;49.242;9.060;2023-08-01T12:54:51;5.40;;;3.33;;
55362;SDS011;41244;49.242;9.060;2023-08-01T12:57:17;3.50;;;2.55;;
55362;SDS011;41244;49.242;9.060;2023-08-01T12:59:43;3.97;;;2.95;;
55362;SDS011;41244;49.242;9.060;2023-08-01T13:02:09;3.10;;;2.70;;
55362;SDS011;41244;49.242;9.060;2023-08-01T13:04:35;3.42;;;2.80;;
55362;SDS011;41244;49.242;9.060;2023-08-01T13:07:01;3.60;;;2.70;;
55362;SDS011;41244;49.242;9.060;2023-08-01T13:09:27;3.38;;;2.78;;
55362;SDS011;41244;49.242;9.060;2023-08-01T13:11:52;2.65;;;2.45;;
55362;SDS011;41244;49.242;9.060;2023-08-01T13:14:18;3.10;;;2.80;;
55362;SDS011;41244;49.242;9.060;2023-08-01T13:16:44;3.03;;;2.72;;
55362;SDS011;41244;49.242;9.060;2023-08-01T13:19:10;3.70;;;2.42;;
55362;SDS011;41244;49.242;9.060;2023-08-01T13:21:35;5.38;;;3.75;;
55362;SDS011;41244;49.242;9.060;2023-08-01T13:24:01;5.63;;;4.25;;
55362;SDS011;41244;49.242;9.060;2023-08-01T13:26:31;3.22;;;2.47;;
55362;SDS011;41244;49.242;9.060;2023-08-01T13:28:59;3.33;;;2.60;;
55362;SDS011;41244;49.242;9.060;2023-08-01T13:31:26;5.80;;;2.78;;
55362;SDS011;41244;49.242;9.060;2023-08-01T13:33:52;3.55;;;2.70;;
55362;SDS011;41244;49.242;9.060;2023-08-01T13:36:18;3.22;;;2.58;;
55362;SDS011;41244;49.242;9.060;2023-08-01T13:38:44;5.82;;;2.60;;
55362;SDS011;41244;49.242;9.060;2023-08-01T13:41:10;3.75;;;2.60;;
55362;SDS011;41244;49.242;9.060;2023-08-01T13:43:35;3.00;;;2.67;;
55362;SDS011;41244;49.242;9.060;2023-08-01T13:46:14;3.13;;;2.45;;
55362;SDS011;41244;49.242;9.060;2023-08-01T13:48:45;3.67;;;2.60;;
55362;SDS011;41244;49.242;9.060;2023-08-01T13:51:11;4.07;;;2.78;;
55362;SDS011;41244;49.242;9.060;2023-08-01T13:53:38;4.65;;;2.58;;
55362;SDS011;41244;49.242;9.060;2023-08-01T13:56:08;2.50;;;2.30;;
55362;SDS011;41244;49.242;9.060;2023-08-01T13:58:37;3.17;;;2.50;;
55362;SDS011;41244;49.242;9.060;2023-08-01T14:01:05;5.40;;;2.92;;
55362;SDS011;41244;49.242;9.060;2023-08-01T14:03:35;3.38;;;2.67;;
55362;SDS011;41244;49.242;9.060;2023-08-01T14:06:07;3.13;;;2.63;;
55362;SDS011;41244;49.242;9.060;2023-08-01T14:08:36;4.32;;;2.60;;
55362;SDS011;41244;49.242;9.060;2023-08-01T14:11:06;3.10;;;2.60;;
55362;SDS011;41244;49.242;9.060;2023-08-01T14:13:34;3.85;;;2.80;;
55362;SDS011;41244;49.242;9.060;2023-08-01T14:16:01;2.95;;;2.50;;
55362;SDS011;41244;49.242;9.060;2023-08-01T14:18:27;3.85;;;2.95;;
55362;SDS011;41244;49.242;9.060;2023-08-01T14:20:54;3.20;;;2.30;;
55362;SDS011;41244;49.242;9.060;2023-08-01T14:23:20;2.72;;;2.53;;
55362;SDS011;41244;49.242;9.060;2023-08-01T14:25:46;4.07;;;2.63;;
55362;SDS011;41244;49.242;9.060;2023-08-01T14:28:12;2.92;;;2.58;;
55362;SDS011;41244;49.242;9.060;2023-08-01T14:30:38;4.22;;;2.50;;
55362;SDS011;41244;49.242;9.060;2023-08-01T14:33:05;3.22;;;2.58;;
55362;SDS011;41244;49.242;9.060;2023-08-01T14:35:33;2.95;;;2.40;;
55362;SDS011;41244;49.242;9.060;2023-08-01T14:38:00;2.72;;;2.30;;
55362;SDS011;41244;49.242;9.060;2023-08-01T14:40:26;3.05;;;2.50;;
55362;SDS011;41244;49.242;9.060;2023-08-01T14:42:51;3.25;;;2.50;;
55362;SDS011;41244;49.242;9.060;2023-08-01T14:45:18;2.70;;;2.30;;
55362;SDS011;41244;49.242;9.060;2023-08-01T14:47:44;2.63;;;2.42;;
55362;SDS011;41244;49.242;9.060;2023-08-01T14:50:10;4.38;;;2.83;;
55362;SDS011;41244;49.242;9.060;2023-08-01T14:52:37;4.47;;;2.42;;
55362;SDS011;41244;49.242;9.060;2023-08-01T14:55:03;2.75;;;2.45;;
55362;SDS011;41244;49.242;9.060;2023-08-01T14:57:30;3.05;;;2.50;;
55362;SDS011;41244;49.242;9.060;2023-08-01T14:59:56;5.72;;;2.85;;
55362;SDS011;41244;49.242;9.060;2023-08-01T15:02:22;4.40;;;2.85;;
55362;SDS011;41244;49.242;9.060;2023-08-01T15:04:51;3.25;;;2.60;;
55362;SDS011;41244;49.242;9.060;2023-08-01T15:07:20;3.77;;;2.70;;
55362;SDS011;41244;49.242;9.060;2023-08-01T15:09:46;4.30;;;2.60;;
55362;SDS011;41244;49.242;9.060;2023-08-01T15:12:12;11.43;;;2.83;;
55362;SDS011;41244;49.242;9.060;2023-08-01T15:14:38;11.20;;;3.10;;